Time;durP1;ratioP1;P1;durP2;ratioP2;P2;SDS_P1;SDS_P2;PMS_P1;PMS_P2;Temp;Humidity;BMP_temperature;BMP_pressure;BME280_temperature;BME280_humidity;BME280_pressure;Samples;Min_cycle;Max_cycle;Signal;HPM_P1;HPM_P2
2021/01/23 00:02:12;;;;;;;1.90;1.60;;;4.90;99.90;;;;;;5050893;28;20229;-68
2021/01/23 00:04:40;;;;;;;2.13;1.90;;;4.90;99.90;;;;;;5051017;28;20393;-68
2021/01/23 00:07:07;;;;;;;1.53;1.43;;;4.90;99.90;;;;;;5051299;28;20515;-67
2021/01/23 00:09:34;;;;;;;1.70;1.60;;;4.90;99.90;;;;;;5051085;28;20206;-68
2021/01/23 00:12:00;;;;;;;1.67;1.50;;;4.80;99.90;;;;;;5051108;28;20208;-69
2021/01/23 00:14:26;;;;;;;1.40;1.20;;;4.80;99.90;;;;;;5050933;28;20569;-68
2021/01/23 00:16:53;;;;;;;1.40;1.30;;;4.90;99.90;;;;;;5052698;28;20230;-69
2021/01/23 00:19:19;;;;;;;1.27;1.17;;;4.90;99.90;;;;;;5052375;28;20209;-68
2021/01/23 00:21:45;;;;;;;1.20;1.10;;;4.80;99.90;;;;;;5051335;28;20233;-68
2021/01/23 00:24:11;;;;;;;1.17;1.07;;;4.80;99.90;;;;;;5050911;28;20212;-70
2021/01/23 00:26:41;;;;;;;0.83;0.83;;;4.80;99.90;;;;;;5050846;28;20248;-68
2021/01/23 00:29:07;;;;;;;1.00;0.90;;;4.90;99.90;;;;;;5050907;28;20580;-68
2021/01/23 00:31:34;;;;;;;1.20;1.00;;;4.90;99.90;;;;;;5051306;28;20206;-68
2021/01/23 00:34:00;;;;;;;1.00;0.90;;;4.90;99.90;;;;;;5051595;28;20201;-68
2021/01/23 00:36:26;;;;;;;0.93;0.90;;;4.90;99.90;;;;;;5052478;28;20226;-68
2021/01/23 00:38:52;;;;;;;1.27;1.10;;;4.90;99.90;;;;;;5051602;28;20210;-68
2021/01/23 00:41:18;;;;;;;1.70;1.40;;;4.90;99.90;;;;;;5051569;28;20217;-70
2021/01/23 00:43:45;;;;;;;3.93;2.40;;;4.80;99.90;;;;;;5055013;28;20705;-70
2021/01/23 00:46:11;;;;;;;1.57;1.47;;;4.80;99.90;;;;;;5055552;28;20213;-68
2021/01/23 00:48:37;;;;;;;2.80;1.80;;;4.80;99.90;;;;;;5056068;28;20202;-68
2021/01/23 00:51:04;;;;;;;1.70;1.60;;;4.70;99.90;;;;;;5055922;28;20201;-68
2021/01/23 00:53:31;;;;;;;1.33;1.23;;;4.70;99.90;;;;;;5055649;28;20210;-68
2021/01/23 00:55:57;;;;;;;1.70;1.60;;;4.70;99.90;;;;;;5055579;28;20292;-69
2021/01/23 00:58:23;;;;;;;1.90;1.70;;;4.70;99.90;;;;;;5055154;28;20713;-68
2021/01/23 01:00:50;;;;;;;2.13;1.80;;;4.60;99.90;;;;;;5054941;28;20222;-68
2021/01/23 01:03:16;;;;;;;1.83;1.70;;;4.50;99.90;;;;;;5054723;28;20263;-68
2021/01/23 01:05:42;;;;;;;2.10;1.90;;;4.40;99.90;;;;;;5054284;28;20213;-68
2021/01/23 01:08:08;;;;;;;2.10;1.90;;;4.20;99.90;;;;;;5054258;28;20230;-68
2021/01/23 01:10:35;;;;;;;2.10;1.90;;;4.10;99.90;;;;;;5054530;28;20197;-67
2021/01/23 01:13:01;;;;;;;2.20;2.00;;;4.10;99.90;;;;;;5054319;28;20205;-67
2021/01/23 01:15:27;;;;;;;2.30;2.10;;;4.10;99.90;;;;;;5054220;28;20216;-69
2021/01/23 01:17:54;;;;;;;2.30;2.10;;;4.00;99.90;;;;;;5055191;28;20341;-68
2021/01/23 01:20:20;;;;;;;2.67;2.47;;;4.00;99.90;;;;;;5056177;28;20201;-68
2021/01/23 01:22:46;;;;;;;2.83;2.53;;;3.90;99.90;;;;;;5055419;28;20213;-68
2021/01/23 01:25:12;;;;;;;2.97;2.57;;;4.00;99.90;;;;;;5054567;28;20216;-68
2021/01/23 01:27:39;;;;;;;2.93;2.63;;;4.10;99.90;;;;;;5054555;28;20229;-66
2021/01/23 01:30:07;;;;;;;3.07;2.77;;;4.10;99.90;;;;;;5054776;28;20210;-66
2021/01/23 01:32:33;;;;;;;3.37;2.73;;;4.10;99.90;;;;;;5054576;28;20260;-67
2021/01/23 01:35:00;;;;;;;3.80;2.30;;;4.10;99.90;;;;;;5054300;28;20206;-67
2021/01/23 01:37:27;;;;;;;3.40;2.57;;;4.20;99.90;;;;;;5054073;28;20709;-67
2021/01/23 01:39:53;;;;;;;3.47;2.73;;;4.20;99.90;;;;;;5054372;28;20206;-68
2021/01/23 01:42:19;;;;;;;2.70;2.20;;;4.10;99.90;;;;;;5053960;28;20226;-67
2021/01/23 01:44:45;;;;;;;2.93;2.50;;;4.10;99.90;;;;;;5054021;28;20201;-67
2021/01/23 01:47:11;;;;;;;2.63;2.43;;;4.10;99.90;;;;;;5054180;28;20232;-67
2021/01/23 01:49:37;;;;;;;2.97;2.40;;;4.10;99.90;;;;;;5054022;28;20206;-67
2021/01/23 01:52:05;;;;;;;2.33;2.13;;;4.10;99.90;;;;;;5053615;28;20618;-67
2021/01/23 01:54:31;;;;;;;2.47;2.27;;;4.00;99.90;;;;;;5053503;28;20216;-67
2021/01/23 01:56:57;;;;;;;2.40;2.13;;;4.00;99.90;;;;;;5053710;28;20229;-68
2021/01/23 01:59:23;;;;;;;2.80;2.30;;;4.00;99.90;;;;;;5053521;28;20213;-67
2021/01/23 02:02:01;;;;;;;3.03;2.73;;;3.90;99.90;;;;;;5053798;28;20240;-66
2021/01/23 02:04:35;;;;;;;3.90;3.17;;;3.90;99.90;;;;;;5053959;28;20208;-66
2021/01/23 02:07:25;;;;;;;3.27;2.97;;;4.10;99.90;;;;;;5053922;28;20225;-66
2021/01/23 02:10:17;;;;;;;3.27;2.97;;;4.20;99.90;;;;;;5053521;28;20220;-67
2021/01/23 02:12:57;;;;;;;4.00;3.43;;;4.30;99.90;;;;;;5053319;28;20213;-67
2021/01/23 02:15:28;;;;;;;5.57;4.27;;;4.30;99.90;;;;;;5053468;28;20205;-67
2021/01/23 02:18:04;;;;;;;4.70;3.83;;;4.30;99.90;;;;;;5053303;28;20221;-68
2021/01/23 02:20:53;;;;;;;4.90;3.50;;;4.30;99.90;;;;;;5053463;28;20209;-67
2021/01/23 02:23:24;;;;;;;11.50;9.00;;;4.40;99.90;;;;;;5053602;28;20224;-67
2021/01/23 02:25:58;;;;;;;8.00;5.90;;;4.40;99.90;;;;;;5053145;28;20223;-68
2021/01/23 02:28:42;;;;;;;4.83;4.07;;;4.40;99.90;;;;;;5052866;28;20738;-68
2021/01/23 02:31:13;;;;;;;4.87;4.37;;;4.40;99.90;;;;;;5053468;28;20202;-67
2021/01/23 02:33:40;;;;;;;5.43;4.30;;;4.40;99.90;;;;;;5053038;28;20243;-68
2021/01/23 02:36:08;;;;;;;5.50;4.83;;;4.30;99.90;;;;;;5053038;28;20771;-67
2021/01/23 02:38:37;;;;;;;6.17;5.50;;;4.40;99.90;;;;;;5052947;28;20656;-68
2021/01/23 02:41:04;;;;;;;5.63;5.03;;;4.50;99.90;;;;;;5052761;28;20777;-67
2021/01/23 02:43:31;;;;;;;6.20;5.10;;;4.50;99.90;;;;;;5052865;28;20263;-67
2021/01/23 02:45:57;;;;;;;6.27;5.53;;;4.60;99.90;;;;;;5052848;28;20213;-68
2021/01/23 02:48:25;;;;;;;6.57;5.53;;;4.70;99.90;;;;;;5052558;28;20709;-67
2021/01/23 02:50:53;;;;;;;7.17;5.80;;;4.70;99.90;;;;;;5052519;28;20273;-67
2021/01/23 02:53:22;;;;;;;6.73;6.03;;;4.60;99.90;;;;;;5052064;28;20209;-67
2021/01/23 02:55:54;;;;;;;7.10;5.90;;;4.70;99.90;;;;;;5053396;28;20695;-68
2021/01/23 02:58:23;;;;;;;6.73;5.70;;;4.70;99.90;;;;;;5052586;28;20234;-67
2021/01/23 03:00:52;;;;;;;7.37;6.50;;;4.70;99.90;;;;;;5052150;28;20640;-67
2021/01/23 03:03:20;;;;;;;7.50;6.17;;;4.70;99.90;;;;;;5052194;28;20206;-68
2021/01/23 03:05:49;;;;;;;7.00;6.13;;;4.80;99.90;;;;;;5051154;28;20259;-67
2021/01/23 03:08:16;;;;;;;7.27;6.50;;;4.70;99.90;;;;;;5052174;28;20639;-67
2021/01/23 03:10:44;;;;;;;7.27;6.07;;;4.70;99.90;;;;;;5051924;28;20234;-66
2021/01/23 03:13:12;;;;;;;7.03;6.33;;;4.70;99.90;;;;;;5051538;28;20213;-68
2021/01/23 03:15:39;;;;;;;8.30;6.60;;;4.80;99.90;;;;;;5052036;28;20210;-68
2021/01/23 03:18:06;;;;;;;7.33;6.53;;;4.90;99.90;;;;;;5051678;28;20221;-68
2021/01/23 03:20:33;;;;;;;6.23;5.17;;;4.80;99.90;;;;;;5051546;28;20243;-67
2021/01/23 03:23:01;;;;;;;5.27;4.70;;;4.80;99.90;;;;;;5051972;28;20214;-67
2021/01/23 03:25:28;;;;;;;4.43;4.03;;;4.70;99.90;;;;;;5051377;28;20243;-69
2021/01/23 03:27:55;;;;;;;3.07;2.87;;;4.70;99.90;;;;;;5074363;22;20700;-60
2021/01/23 03:30:22;;;;;;;3.27;2.97;;;4.60;99.90;;;;;;5051235;28;20202;-58
2021/01/23 03:32:49;;;;;;;2.47;2.27;;;4.70;99.90;;;;;;5051304;28;20692;-58
2021/01/23 03:35:16;;;;;;;2.23;2.03;;;4.60;99.90;;;;;;5051238;28;20247;-58
2021/01/23 03:37:43;;;;;;;2.63;2.40;;;4.50;99.90;;;;;;5051110;28;20618;-61
2021/01/23 03:40:11;;;;;;;3.90;2.10;;;4.60;99.90;;;;;;5051294;28;20201;-58
2021/01/23 03:42:38;;;;;;;2.30;2.10;;;4.60;99.90;;;;;;5051303;28;20225;-58
2021/01/23 03:45:05;;;;;;;2.30;2.10;;;4.50;99.90;;;;;;5051455;28;20210;-58
2021/01/23 03:47:32;;;;;;;2.57;2.00;;;4.50;99.90;;;;;;5051198;28;20294;-58
2021/01/23 03:49:58;;;;;;;2.40;2.20;;;4.50;99.90;;;;;;5051525;28;20209;-59
2021/01/23 03:52:24;;;;;;;2.30;2.10;;;4.50;99.90;;;;;;5051285;28;20205;-58
2021/01/23 03:54:50;;;;;;;2.90;2.70;;;4.60;99.90;;;;;;5050802;28;20625;-59
2021/01/23 03:57:17;;;;;;;2.50;2.30;;;4.60;99.90;;;;;;5050926;28;20275;-59
2021/01/23 03:59:43;;;;;;;2.63;2.40;;;4.60;99.90;;;;;;5050679;28;20255;-59
2021/01/23 04:02:09;;;;;;;2.50;2.30;;;4.60;99.90;;;;;;5050865;28;20224;-59
2021/01/23 04:04:36;;;;;;;2.63;2.43;;;4.60;99.90;;;;;;5050968;28;20625;-59
2021/01/23 04:07:02;;;;;;;2.30;2.10;;;4.60;99.90;;;;;;5050750;28;20236;-59
2021/01/23 04:09:28;;;;;;;2.93;2.50;;;4.60;99.90;;;;;;5050629;28;20263;-59
2021/01/23 04:11:54;;;;;;;2.40;2.20;;;4.70;99.90;;;;;;5050698;28;20557;-59
2021/01/23 04:14:21;;;;;;;3.40;2.77;;;4.70;99.90;;;;;;5050636;28;20633;-59
2021/01/23 04:16:48;;;;;;;3.20;2.53;;;4.70;99.90;;;;;;5053476;28;20645;-59
2021/01/23 04:19:14;;;;;;;3.20;2.90;;;4.70;99.90;;;;;;5054719;28;20241;-59
2021/01/23 04:21:40;;;;;;;2.83;2.50;;;4.70;99.90;;;;;;5054727;28;20700;-59
2021/01/23 04:24:08;;;;;;;3.40;3.10;;;4.70;99.90;;;;;;5054536;28;20212;-60
2021/01/23 04:26:34;;;;;;;3.13;2.73;;;4.80;99.90;;;;;;5054619;28;20209;-59
2021/01/23 04:29:02;;;;;;;2.90;2.63;;;4.70;99.90;;;;;;5054386;28;20209;-59
2021/01/23 04:31:28;;;;;;;3.50;3.10;;;4.80;99.90;;;;;;5054716;28;20197;-59
2021/01/23 04:33:55;;;;;;;3.63;3.20;;;4.80;99.90;;;;;;5054353;28;20205;-60
2021/01/23 04:36:21;;;;;;;3.10;2.80;;;4.80;99.90;;;;;;5054573;28;20216;-59
2021/01/23 04:38:48;;;;;;;3.20;2.90;;;4.90;99.90;;;;;;5054432;28;20263;-60
2021/01/23 04:41:14;;;;;;;3.33;2.97;;;4.90;99.90;;;;;;5054282;28;20599;-60
2021/01/23 04:43:40;;;;;;;5.27;3.07;;;4.90;99.90;;;;;;5054147;28;20232;-59
2021/01/23 04:46:07;;;;;;;4.23;3.20;;;4.90;99.90;;;;;;5054141;28;20658;-59
2021/01/23 04:48:35;;;;;;;4.43;3.37;;;4.90;99.90;;;;;;5054180;28;20233;-59
2021/01/23 04:51:01;;;;;;;4.07;3.20;;;4.90;99.90;;;;;;5054838;28;20213;-60
2021/01/23 04:53:28;;;;;;;5.70;3.40;;;5.00;99.90;;;;;;5054622;28;20208;-60
2021/01/23 04:55:54;;;;;;;3.57;3.27;;;5.00;99.90;;;;;;5054560;28;20212;-60
2021/01/23 04:58:20;;;;;;;3.90;3.40;;;5.00;99.90;;;;;;5055792;28;20237;-59
2021/01/23 05:00:46;;;;;;;4.43;4.03;;;5.10;99.90;;;;;;5054542;28;20201;-60
2021/01/23 05:03:13;;;;;;;3.70;3.40;;;5.00;99.90;;;;;;5054107;28;20206;-60
2021/01/23 05:05:40;;;;;;;3.90;3.50;;;5.00;99.90;;;;;;5054174;28;20205;-59
2021/01/23 05:08:07;;;;;;;6.80;4.53;;;5.10;99.90;;;;;;5054145;28;20230;-59
2021/01/23 05:10:34;;;;;;;5.90;4.20;;;5.10;99.90;;;;;;5053956;28;20209;-60
2021/01/23 05:13:00;;;;;;;5.33;3.93;;;5.10;99.90;;;;;;5054143;28;20205;-59
2021/01/23 05:15:28;;;;;;;4.10;3.63;;;5.20;99.90;;;;;;5053594;28;20565;-60
2021/01/23 05:17:56;;;;;;;3.87;3.40;;;5.20;99.90;;;;;;5053518;28;20308;-59
2021/01/23 05:20:48;;;;;;;3.87;3.47;;;5.10;99.90;;;;;;5053777;28;20305;-59
2021/01/23 05:23:16;;;;;;;4.07;3.57;;;5.10;99.90;;;;;;5053466;28;20212;-59
2021/01/23 05:25:46;;;;;;;4.30;3.87;;;5.10;99.90;;;;;;5053626;28;20259;-59
2021/01/23 05:28:13;;;;;;;6.10;4.33;;;5.10;99.90;;;;;;5052585;28;20233;-59
2021/01/23 05:30:45;;;;;;;5.20;4.23;;;5.10;99.90;;;;;;5053441;28;20212;-59
2021/01/23 05:33:13;;;;;;;6.27;4.50;;;5.00;99.90;;;;;;5053358;28;20205;-59
2021/01/23 05:35:39;;;;;;;5.33;4.23;;;5.00;99.90;;;;;;5053096;28;20206;-59
2021/01/23 05:38:22;;;;;;;6.27;4.10;;;5.00;99.90;;;;;;5053248;28;20233;-59
2021/01/23 05:40:52;;;;;;;4.87;4.37;;;5.10;99.90;;;;;;5050666;28;20205;-59
2021/01/23 05:43:36;;;;;;;5.33;4.30;;;5.10;99.90;;;;;;5053453;28;20259;-59
2021/01/23 05:46:06;;;;;;;6.23;4.40;;;5.20;99.90;;;;;;5053122;28;20210;-59
2021/01/23 05:48:33;;;;;;;5.30;4.33;;;5.30;99.90;;;;;;5053245;28;20237;-59
2021/01/23 05:51:00;;;;;;;4.33;3.87;;;5.40;99.90;;;;;;5053160;28;20283;-59
2021/01/23 05:53:27;;;;;;;5.50;4.00;;;5.40;99.90;;;;;;5053017;28;20205;-59
2021/01/23 05:55:53;;;;;;;4.30;3.87;;;5.40;99.90;;;;;;5052960;28;20210;-59
2021/01/23 05:58:20;;;;;;;4.93;4.10;;;5.30;99.90;;;;;;5052645;28;20616;-60
2021/01/23 06:00:48;;;;;;;4.67;3.90;;;5.40;99.90;;;;;;5052673;28;20205;-59
2021/01/23 06:03:15;;;;;;;4.37;3.97;;;5.40;99.90;;;;;;5052986;28;20271;-61
2021/01/23 06:05:42;;;;;;;5.30;4.00;;;5.40;99.90;;;;;;5052585;28;20574;-59
2021/01/23 06:08:09;;;;;;;4.07;3.60;;;5.40;99.90;;;;;;5052639;28;20221;-59
2021/01/23 06:10:45;;;;;;;4.93;4.17;;;5.40;99.90;;;;;;5052800;28;20255;-59
2021/01/23 06:13:38;;;;;;;4.47;3.40;;;5.40;99.90;;;;;;5052498;28;20255;-62
2021/01/23 06:16:06;;;;;;;3.83;3.43;;;5.30;99.90;;;;;;5052733;28;20264;-60
2021/01/23 06:18:32;;;;;;;4.23;3.33;;;5.30;99.90;;;;;;5052508;28;20230;-60
2021/01/23 06:21:00;;;;;;;5.07;3.40;;;5.30;99.90;;;;;;5052490;28;20216;-60
2021/01/23 06:23:48;;;;;;;4.90;3.70;;;5.30;99.90;;;;;;5052448;28;20210;-60
2021/01/23 06:26:15;;;;;;;5.50;3.53;;;5.20;99.90;;;;;;5052806;28;20293;-60
2021/01/23 06:28:52;;;;;;;4.90;3.50;;;5.20;99.90;;;;;;5051985;28;20233;-60
2021/01/23 06:31:35;;;;;;;3.77;3.33;;;5.20;99.90;;;;;;5052717;28;20205;-60
2021/01/23 06:34:22;;;;;;;3.70;3.30;;;5.20;99.90;;;;;;5052368;28;20206;-60
2021/01/23 06:36:49;;;;;;;4.77;2.80;;;5.20;99.90;;;;;;5052355;28;20253;-60
2021/01/23 06:39:15;;;;;;;7.03;3.10;;;5.10;99.90;;;;;;5051508;28;20582;-60
2021/01/23 06:41:42;;;;;;;4.20;3.10;;;5.00;99.90;;;;;;5051956;28;20245;-59
2021/01/23 06:44:13;;;;;;;4.90;3.20;;;5.00;99.90;;;;;;5051907;28;20339;-60
2021/01/23 06:46:41;;;;;;;3.77;2.70;;;5.00;99.90;;;;;;5051898;28;20210;-60
2021/01/23 06:49:10;;;;;;;2.97;2.63;;;5.00;99.90;;;;;;5052172;28;20412;-60
2021/01/23 06:51:36;;;;;;;2.83;2.50;;;4.90;99.90;;;;;;5052060;28;20201;-60
2021/01/23 06:54:13;;;;;;;2.83;2.37;;;4.80;99.90;;;;;;5051655;28;20673;-60
2021/01/23 06:56:42;;;;;;;4.37;3.30;;;4.70;99.90;;;;;;5051951;28;20259;-60
2021/01/23 06:59:20;;;;;;;4.00;2.70;;;4.60;99.90;;;;;;5051586;28;20220;-60
2021/01/23 07:01:53;;;;;;;3.97;3.40;;;4.50;99.90;;;;;;5051792;28;20316;-60
2021/01/23 07:04:20;;;;;;;3.10;2.70;;;4.50;99.90;;;;;;5051663;28;20205;-60
2021/01/23 07:06:46;;;;;;;3.17;2.80;;;4.60;99.90;;;;;;5051794;28;20225;-60
2021/01/23 07:09:12;;;;;;;3.23;2.80;;;4.60;99.90;;;;;;5051591;28;20205;-60
2021/01/23 07:11:39;;;;;;;4.97;3.00;;;4.60;99.90;;;;;;5051574;28;20526;-60
2021/01/23 07:14:08;;;;;;;3.20;2.80;;;4.70;99.90;;;;;;5051619;28;20217;-61
2021/01/23 07:16:35;;;;;;;3.50;2.80;;;4.70;99.90;;;;;;5052126;28;20213;-60
2021/01/23 07:19:04;;;;;;;4.23;3.03;;;4.70;99.90;;;;;;5051352;28;20231;-61
2021/01/23 07:21:33;;;;;;;5.40;4.20;;;4.70;99.90;;;;;;5051328;28;20228;-59
2021/01/23 07:24:01;;;;;;;4.17;2.87;;;4.80;99.90;;;;;;5051223;28;20229;-60
2021/01/23 07:26:28;;;;;;;3.93;3.10;;;4.80;99.90;;;;;;5051078;28;20704;-60
2021/01/23 07:28:55;;;;;;;8.37;6.00;;;4.90;99.90;;;;;;5051263;28;20205;-61
2021/01/23 07:31:25;;;;;;;7.30;4.33;;;4.90;99.90;;;;;;5051301;28;20205;-60
2021/01/23 07:33:51;;;;;;;4.17;3.30;;;4.90;99.90;;;;;;5051011;28;20202;-60
2021/01/23 07:36:32;;;;;;;4.03;3.03;;;5.00;99.90;;;;;;5051236;28;20214;-60
2021/01/23 07:38:59;;;;;;;5.83;4.00;;;5.00;99.90;;;;;;5051014;28;20210;-61
2021/01/23 07:41:29;;;;;;;7.43;4.70;;;5.10;99.90;;;;;;5051488;28;20309;-61
2021/01/23 07:43:56;;;;;;;12.60;7.27;;;5.10;99.90;;;;;;5050844;28;20205;-61
2021/01/23 07:46:23;;;;;;;5.77;4.17;;;5.10;99.90;;;;;;5050910;28;20297;-61
2021/01/23 07:48:50;;;;;;;4.97;4.00;;;5.20;99.90;;;;;;5050901;28;20212;-60
2021/01/23 07:51:23;;;;;;;6.33;4.53;;;5.20;99.90;;;;;;5050511;28;20292;-60
2021/01/23 07:54:10;;;;;;;3.90;3.20;;;5.30;99.90;;;;;;5050815;28;20316;-60
2021/01/23 07:56:37;;;;;;;3.53;2.90;;;5.40;99.90;;;;;;5050738;28;20600;-60
2021/01/23 07:59:05;;;;;;;3.03;2.67;;;5.40;99.90;;;;;;5050676;28;20214;-60
2021/01/23 08:01:32;;;;;;;3.93;3.20;;;5.50;99.90;;;;;;5050934;28;20267;-60
2021/01/23 08:03:58;;;;;;;3.93;3.07;;;5.50;99.90;;;;;;5050782;28;20221;-60
2021/01/23 08:06:25;;;;;;;3.43;2.90;;;5.60;99.90;;;;;;5050808;28;20530;-60
2021/01/23 08:08:53;;;;;;;4.70;4.03;;;5.60;99.90;;;;;;5050475;28;20205;-60
2021/01/23 08:11:41;;;;;;;3.93;3.27;;;5.70;99.90;;;;;;5050900;28;20201;-61
2021/01/23 08:14:08;;;;;;;3.30;2.70;;;5.90;99.90;;;;;;5050536;28;20263;-60
2021/01/23 08:16:35;;;;;;;3.20;2.60;;;6.00;99.90;;;;;;5049574;28;20991;-60
2021/01/23 08:19:05;;;;;;;2.90;2.40;;;6.00;99.90;;;;;;5048453;28;20440;-60
2021/01/23 08:21:31;;;;;;;5.90;2.70;;;6.20;99.90;;;;;;5050316;28;20316;-60
2021/01/23 08:23:58;;;;;;;4.97;3.70;;;6.30;99.90;;;;;;5050648;28;20590;-60
2021/01/23 08:26:36;;;;;;;4.97;3.67;;;6.40;99.90;;;;;;5050352;28;20213;-59
2021/01/23 08:29:04;;;;;;;2.53;2.33;;;6.50;99.90;;;;;;5050137;28;20548;-62
2021/01/23 08:31:30;;;;;;;2.73;2.10;;;6.50;99.90;;;;;;5050550;28;20201;-61
2021/01/23 08:33:58;;;;;;;3.13;2.40;;;6.50;99.90;;;;;;5050199;28;20669;-60
2021/01/23 08:36:25;;;;;;;4.13;2.40;;;6.50;99.90;;;;;;5050383;28;20696;-61
2021/01/23 08:38:55;;;;;;;3.60;2.60;;;6.40;99.90;;;;;;5050157;28;20210;-59
2021/01/23 08:41:22;;;;;;;6.33;2.60;;;6.40;99.90;;;;;;5050043;28;20728;-63
2021/01/23 08:43:48;;;;;;;4.70;3.70;;;6.50;99.90;;;;;;5050382;28;20210;-63
2021/01/23 08:46:14;;;;;;;3.77;2.40;;;6.60;99.90;;;;;;5050565;28;20574;-62
2021/01/23 08:48:40;;;;;;;2.73;2.53;;;6.80;99.90;;;;;;5045790;28;20218;-62
2021/01/23 08:51:07;;;;;;;2.90;2.60;;;6.90;99.90;;;;;;5029969;28;20206;-61
2021/01/23 08:53:34;;;;;;;5.53;3.40;;;7.00;99.90;;;;;;5030038;28;20207;-63
2021/01/23 08:56:00;;;;;;;4.10;2.43;;;7.10;99.90;;;;;;5029421;28;20645;-61
2021/01/23 08:58:26;;;;;;;3.00;2.30;;;7.30;99.90;;;;;;5030104;28;20230;-61
2021/01/23 09:00:52;;;;;;;4.67;3.07;;;7.30;99.90;;;;;;5030480;28;20210;-60
2021/01/23 09:03:18;;;;;;;3.07;2.50;;;7.40;99.90;;;;;;5031713;28;20226;-62
2021/01/23 09:05:44;;;;;;;5.77;3.33;;;7.50;99.90;;;;;;5034013;28;20218;-61
2021/01/23 09:08:11;;;;;;;3.80;2.80;;;7.50;99.90;;;;;;5034331;28;20281;-63
2021/01/23 09:10:38;;;;;;;7.50;4.20;;;7.50;99.90;;;;;;5034334;28;20211;-63
2021/01/23 09:13:06;;;;;;;4.60;3.50;;;7.60;99.90;;;;;;5034099;28;20218;-63
2021/01/23 09:15:32;;;;;;;4.13;2.50;;;7.60;99.90;;;;;;5034158;28;20833;-62
2021/01/23 09:17:58;;;;;;;4.27;2.63;;;7.60;99.90;;;;;;5033476;28;20241;-63
2021/01/23 09:20:25;;;;;;;3.13;2.43;;;7.60;99.90;;;;;;5034311;28;20211;-62
2021/01/23 09:22:51;;;;;;;3.70;2.70;;;7.70;99.90;;;;;;5033858;28;20278;-61
2021/01/23 09:25:19;;;;;;;3.10;2.80;;;7.70;99.90;;;;;;5033125;28;20214;-62
2021/01/23 09:27:45;;;;;;;3.27;2.50;;;7.80;99.90;;;;;;5034742;28;20260;-63
2021/01/23 09:30:14;;;;;;;3.57;2.47;;;7.80;99.90;;;;;;5044458;28;20206;-62
2021/01/23 09:32:40;;;;;;;3.53;2.77;;;7.70;99.90;;;;;;5053771;28;20583;-61
2021/01/23 09:35:07;;;;;;;5.20;3.03;;;7.70;99.90;;;;;;5053225;28;20209;-62
2021/01/23 09:37:34;;;;;;;7.70;4.07;;;7.60;99.90;;;;;;5053275;28;20650;-62
2021/01/23 09:40:01;;;;;;;4.87;3.20;;;7.60;99.90;;;;;;5053580;28;20209;-62
2021/01/23 09:42:28;;;;;;;3.87;3.20;;;7.40;99.90;;;;;;5053367;28;20249;-62
2021/01/23 09:44:55;;;;;;;4.10;3.10;;;7.20;99.90;;;;;;5053003;28;20206;-62
2021/01/23 09:47:21;;;;;;;3.60;3.30;;;6.70;99.90;;;;;;5053136;28;20226;-62
2021/01/23 09:49:47;;;;;;;8.10;3.90;;;6.50;99.90;;;;;;5053304;28;20210;-63
2021/01/23 09:52:13;;;;;;;3.70;3.30;;;6.40;99.90;;;;;;5053282;28;20256;-62
2021/01/23 09:54:40;;;;;;;5.07;3.10;;;6.40;99.90;;;;;;5053310;28;20576;-63
2021/01/23 09:57:06;;;;;;;5.30;3.43;;;6.40;99.90;;;;;;5053111;28;20226;-63
2021/01/23 09:59:33;;;;;;;3.33;3.03;;;6.50;99.90;;;;;;5052701;28;20213;-64
2021/01/23 10:02:00;;;;;;;5.47;3.30;;;6.60;99.90;;;;;;5052835;28;20221;-63
2021/01/23 10:04:26;;;;;;;4.00;3.60;;;6.80;99.90;;;;;;5052746;28;20216;-63
2021/01/23 10:06:53;;;;;;;3.17;2.87;;;6.90;99.90;;;;;;5052539;28;20229;-63
2021/01/23 10:09:20;;;;;;;3.93;3.00;;;7.20;99.90;;;;;;5052871;28;20206;-63
2021/01/23 10:11:46;;;;;;;2.80;2.40;;;7.50;99.90;;;;;;5052942;28;20582;-63
2021/01/23 10:14:13;;;;;;;3.40;2.20;;;7.70;99.90;;;;;;5052508;28;20560;-63
2021/01/23 10:16:40;;;;;;;3.57;2.40;;;8.00;99.90;;;;;;5052728;28;20206;-63
2021/01/23 10:19:06;;;;;;;2.40;2.10;;;8.20;99.90;;;;;;5052885;28;20213;-63
2021/01/23 10:21:32;;;;;;;3.10;2.27;;;8.40;99.90;;;;;;5053361;28;20225;-63
2021/01/23 10:23:59;;;;;;;2.97;2.50;;;8.60;99.90;;;;;;5053008;28;20262;-63
2021/01/23 10:26:25;;;;;;;2.87;2.53;;;8.80;99.90;;;;;;5053314;28;20292;-63
2021/01/23 10:28:52;;;;;;;3.67;2.73;;;8.90;99.90;;;;;;5053001;28;20214;-63
2021/01/23 10:31:18;;;;;;;19.77;11.93;;;9.00;99.90;;;;;;5052892;28;20206;-61
2021/01/23 10:33:45;;;;;;;2.97;2.37;;;9.10;99.90;;;;;;5052966;28;20209;-62
2021/01/23 10:36:11;;;;;;;4.83;3.27;;;9.10;99.90;;;;;;5052782;28;20232;-61
2021/01/23 10:38:38;;;;;;;3.90;2.50;;;9.00;99.90;;;;;;5052494;28;20585;-62
2021/01/23 10:41:04;;;;;;;3.13;2.77;;;8.90;99.90;;;;;;5052588;28;20263;-61
2021/01/23 10:43:31;;;;;;;2.97;2.43;;;8.90;99.90;;;;;;5052183;28;20492;-61
2021/01/23 10:45:57;;;;;;;5.90;2.87;;;9.00;99.90;;;;;;5052149;28;20221;-63
2021/01/23 10:48:23;;;;;;;3.77;2.50;;;9.10;99.90;;;;;;5051723;28;20232;-61
2021/01/23 10:50:50;;;;;;;3.30;2.60;;;9.20;99.90;;;;;;5052032;28;20228;-62
2021/01/23 10:53:17;;;;;;;4.17;2.43;;;9.30;99.90;;;;;;5052497;28;20206;-61
2021/01/23 10:55:43;;;;;;;4.30;3.17;;;9.20;99.90;;;;;;5052159;28;20290;-61
2021/01/23 10:58:09;;;;;;;5.93;2.73;;;9.30;99.90;;;;;;5051625;28;20240;-62
2021/01/23 11:00:36;;;;;;;2.67;2.47;;;9.30;99.90;;;;;;5051673;28;20259;-62
2021/01/23 11:03:03;;;;;;;3.67;2.20;;;9.40;99.90;;;;;;5051479;28;20244;-62
2021/01/23 11:05:29;;;;;;;2.73;2.13;;;9.30;99.90;;;;;;5051772;28;20704;-62
2021/01/23 11:07:56;;;;;;;3.83;2.10;;;9.40;99.90;;;;;;5051666;28;20229;-62
2021/01/23 11:10:22;;;;;;;8.10;6.60;;;9.50;99.90;;;;;;5051587;28;20210;-62
2021/01/23 11:12:48;;;;;;;3.03;2.37;;;9.60;99.90;;;;;;5052002;28;20201;-61
2021/01/23 11:15:15;;;;;;;3.47;1.87;;;9.80;99.90;;;;;;5051400;28;20216;-62
2021/01/23 11:17:41;;;;;;;5.57;3.87;;;9.90;99.90;;;;;;5051882;28;20236;-62
2021/01/23 11:20:09;;;;;;;24.20;14.67;;;10.00;99.70;;;;;;5051462;28;20206;-62
2021/01/23 11:22:35;;;;;;;3.77;2.40;;;10.20;99.50;;;;;;5051668;28;20221;-62
2021/01/23 11:25:02;;;;;;;2.80;1.87;;;10.30;99.10;;;;;;5050925;28;20252;-62
2021/01/23 11:27:28;;;;;;;2.60;1.93;;;10.40;99.20;;;;;;5051225;28;20283;-62
2021/01/23 11:29:55;;;;;;;3.30;2.10;;;10.50;99.10;;;;;;5051109;28;20210;-63
2021/01/23 11:32:21;;;;;;;3.87;2.60;;;10.50;99.00;;;;;;5051439;28;20209;-63
2021/01/23 11:34:47;;;;;;;2.90;1.77;;;10.60;98.80;;;;;;5051393;28;20206;-62
2021/01/23 11:37:13;;;;;;;1.93;1.73;;;10.60;98.80;;;;;;5051937;28;20222;-62
2021/01/23 11:39:39;;;;;;;3.10;2.10;;;10.60;98.60;;;;;;5051124;28;20683;-62
2021/01/23 11:42:06;;;;;;;3.23;2.53;;;10.50;98.70;;;;;;5051207;28;20316;-62
2021/01/23 11:44:33;;;;;;;5.47;3.50;;;10.60;98.60;;;;;;5050937;28;20210;-62
2021/01/23 11:46:59;;;;;;;2.43;2.10;;;10.60;98.30;;;;;;5050919;28;20252;-62
2021/01/23 11:49:25;;;;;;;5.40;2.50;;;10.50;97.60;;;;;;5050686;28;20677;-62
2021/01/23 11:51:52;;;;;;;4.37;2.33;;;10.40;98.20;;;;;;5051123;28;20209;-62
2021/01/23 11:54:18;;;;;;;3.07;2.17;;;10.40;98.40;;;;;;5050807;28;20210;-62
2021/01/23 11:56:44;;;;;;;2.80;2.40;;;10.40;98.20;;;;;;5046498;28;20447;-59
2021/01/23 11:59:11;;;;;;;3.13;2.40;;;10.50;98.50;;;;;;5050244;28;20216;-59
2021/01/23 12:01:37;;;;;;;4.17;2.80;;;10.30;98.70;;;;;;5050720;28;20206;-59
2021/01/23 12:04:04;;;;;;;3.37;2.63;;;10.30;98.50;;;;;;5050531;28;20210;-59
2021/01/23 12:06:30;;;;;;;3.57;2.90;;;10.30;98.70;;;;;;5050200;28;20605;-59
2021/01/23 12:08:56;;;;;;;3.53;2.53;;;10.30;99.00;;;;;;5050333;28;20231;-59
2021/01/23 12:11:23;;;;;;;4.20;2.50;;;10.20;98.80;;;;;;5050667;28;20696;-60
2021/01/23 12:13:49;;;;;;;3.70;2.83;;;9.70;99.90;;;;;;5050171;28;20575;-61
2021/01/23 12:16:16;;;;;;;4.73;3.70;;;9.40;99.90;;;;;;5050617;28;20224;-61
2021/01/23 12:18:42;;;;;;;6.23;3.33;;;9.30;99.90;;;;;;5050406;28;20767;-61
2021/01/23 12:21:11;;;;;;;4.07;3.00;;;9.30;99.90;;;;;;5050756;28;20293;-61
2021/01/23 12:23:37;;;;;;;3.67;2.70;;;9.50;99.90;;;;;;5050340;28;20268;-61
2021/01/23 12:26:03;;;;;;;4.13;2.63;;;9.50;99.90;;;;;;5050636;28;20428;-61
2021/01/23 12:28:30;;;;;;;3.30;2.07;;;9.60;99.90;;;;;;5049992;28;20306;-61
2021/01/23 12:30:56;;;;;;;3.83;2.80;;;9.70;99.80;;;;;;5050799;28;20214;-61
2021/01/23 12:33:23;;;;;;;3.23;2.40;;;9.80;99.90;;;;;;5050583;28;20202;-61
2021/01/23 12:35:49;;;;;;;3.87;2.60;;;9.80;99.90;;;;;;5050509;28;20697;-60
2021/01/23 12:38:15;;;;;;;3.33;2.50;;;10.00;99.80;;;;;;5052501;28;20229;-62
2021/01/23 12:40:41;;;;;;;2.57;2.07;;;10.30;99.50;;;;;;5054728;28;20201;-61
2021/01/23 12:43:07;;;;;;;4.23;1.90;;;10.30;98.40;;;;;;5054806;28;20222;-61
2021/01/23 12:45:34;;;;;;;2.67;2.23;;;10.50;98.70;;;;;;5054364;28;20798;-61
2021/01/23 12:48:00;;;;;;;2.63;1.80;;;10.60;98.60;;;;;;5054864;28;20516;-60
2021/01/23 12:50:27;;;;;;;5.07;3.53;;;10.80;98.30;;;;;;5054582;28;20209;-59
2021/01/23 12:52:53;;;;;;;3.43;2.20;;;10.80;98.10;;;;;;5055431;28;20263;-64
2021/01/23 12:55:19;;;;;;;3.00;2.20;;;10.90;97.90;;;;;;5054181;28;20205;-64
2021/01/23 12:57:45;;;;;;;4.43;2.60;;;11.00;98.30;;;;;;5054420;28;20230;-64
2021/01/23 13:00:14;;;;;;;2.97;2.00;;;10.90;97.20;;;;;;5054599;28;20232;-63